Jolyn — PJWG — position and weather

sailwx.info

Track history (hours):
 
Tides and Currents Weather Stations Pressure Air Temp Water Temp Dewpoint Dewpoint Depression Visibility Wind Speed Wind Dir Waves Ship Positions

Jolyn

Last reported at 2018-May-24 17:30 UTC. Time now 2018-May-24 17:36 UTC.
Position N 53°51' E 008°52'.

Length 90 m; draft 5.4 m.

Type: Cargo ship. MMSI: 306813000.

Date/timePositionNaut miles runAvg speedWind from/ knotsBaromVisibWave heightAir tempDewpointWater temp
2018-May-24 17:30N 53°51' E 008°52'4 8.7
2018-May-24 17:00N 53°51' E 008°59'510.0
2018-May-24 16:30N 53°53' E 009°07'1 2.5
2018-May-24 15:59N 53°54' E 009°09'2 3.7
2018-May-24 15:30N 53°55' E 009°11'4 8.1
2018-May-24 15:00N 53°58' E 009°15'4 8.1
2018-May-24 14:30N 54°02' E 009°18'4 8.2
2018-May-24 14:00N 54°06' E 009°20'4 7.5
2018-May-24 13:31N 54°09' E 009°22'20 4.5
2018-May-24 08:59N 54°22' E 009°50'11 6.2
2018-May-24 07:11N 54°22' E 010°09'0 0.2
2018-May-24 07:00N 54°22' E 010°09'2 4.9
2018-May-24 06:30N 54°23' E 010°12'5 9.8
2018-May-24 05:59N 54°28' E 010°15'510.2
2018-May-24 05:30N 54°31' E 010°22'511.0
2018-May-24 05:00N 54°33' E 010°31'510.7
2018-May-24 04:31N 54°34' E 010°40'510.7
2018-May-24 04:00N 54°35' E 010°49'611.0
2018-May-24 03:30N 54°35' E 010°58'511.0
2018-May-24 03:00N 54°36' E 011°08'611.4
2018-May-24 02:31N 54°34' E 011°17'611.4
2018-May-24 02:00N 54°32' E 011°26'611.2
2018-May-24 01:30N 54°29' E 011°35'611.2
2018-May-24 01:01N 54°28' E 011°44'611.1
2018-May-24 00:31N 54°27' E 011°54'611.3
2018-May-24 00:01N 54°27' E 012°03'510.1
2018-May-23 23:31N 54°30' E 012°11'611.3
2018-May-23 23:01N 54°35' E 012°14'510.9
2018-May-23 22:31N 54°39' E 012°20'611.3
2018-May-23 22:00N 54°42' E 012°29'611.3
2018-May-23 21:27N 54°45' E 012°38'711.1
2018-May-23 20:52N 54°48' E 012°48'3211.1
2018-May-23 17:56N 54°59' E 013°41'910.6
2018-May-23 17:06N 55°02' E 013°55'110.8
2018-May-23 16:59N 55°03' E 013°57'510.8
2018-May-23 16:30N 55°05' E 014°06'611.0
2018-May-23 16:00N 55°09' E 014°11'510.9
2018-May-23 15:30N 55°14' E 014°17'611.2
2018-May-23 15:00N 55°18' E 014°23'511.0
2018-May-23 14:30N 55°22' E 014°30'510.9
2018-May-23 14:00N 55°26' E 014°36'511.0
2018-May-23 13:31N 55°29' E 014°44'511.0
2018-May-23 13:01N 55°32' E 014°53'611.0
2018-May-23 12:30N 55°35' E 015°01'510.9
2018-May-23 12:01N 55°38' E 015°09'510.8
2018-May-23 11:31N 55°40' E 015°18'510.6
2018-May-23 11:01N 55°43' E 015°26'510.8
2018-May-23 10:31N 55°46' E 015°34'510.8
2018-May-23 10:01N 55°48' E 015°42'510.9
2018-May-23 09:30N 55°51' E 015°51'510.9
2018-May-23 09:00N 55°54' E 015°59'510.9
2018-May-23 08:31N 55°57' E 016°07'510.8
2018-May-23 08:01N 55°59' E 016°16'510.6
2018-May-23 07:31N 56°02' E 016°24'510.8
2018-May-23 07:00N 56°05' E 016°32'511.0
2018-May-23 06:30N 56°08' E 016°40'510.9
2018-May-23 06:01N 56°11' E 016°48'510.9
2018-May-23 05:31N 56°14' E 016°57'510.9
2018-May-23 05:00N 56°17' E 017°04'510.8
2018-May-23 04:30N 56°21' E 017°12'510.8
2018-May-23 04:01N 56°24' E 017°20'510.8
2018-May-23 03:30N 56°27' E 017°28'510.8
2018-May-23 03:00N 56°31' E 017°35'610.8
2018-May-23 02:30N 56°34' E 017°43'18210.8
2018-May-22 09:36N 58°55' E 021°19'211.0
2018-May-22 09:24N 58°57' E 021°22'410.9
2018-May-22 09:00N 59°00' E 021°27'510.8
2018-May-22 08:30N 59°05' E 021°33'510.7
2018-May-22 08:01N 59°09' E 021°40'510.7
2018-May-22 07:31N 59°12' E 021°48'510.9
2018-May-22 07:00N 59°16' E 021°56'510.9
2018-May-22 06:31N 59°19' E 022°05'610.9
2018-May-22 06:00N 59°22' E 022°13'510.9
2018-May-22 05:30N 59°26' E 022°22'611.0
2018-May-22 05:00N 59°29' E 022°30'910.8
2018-May-22 04:07N 59°32' E 022°48'111.0
2018-May-22 04:00N 59°32' E 022°51'510.9
2018-May-22 03:31N 59°34' E 023°01'510.8
2018-May-22 03:00N 59°35' E 023°11'611.1
2018-May-22 02:30N 59°37' E 023°21'510.8
2018-May-22 02:01N 59°39' E 023°32'510.8
2018-May-22 01:31N 59°40' E 023°42'510.9
2018-May-22 01:00N 59°42' E 023°52'611.1
2018-May-22 00:30N 59°43' E 024°03'610.9
2018-May-21 23:57N 59°45' E 024°14'510.6
2018-May-21 23:30N 59°46' E 024°23'510.8
2018-May-21 23:01N 59°48' E 024°34'510.8
2018-May-21 22:31N 59°49' E 024°44'611.0
2018-May-21 22:00N 59°50' E 024°55'510.8
2018-May-21 21:31N 59°51' E 025°05'510.5
2018-May-21 21:01N 59°52' E 025°16'510.5
2018-May-21 20:31N 59°54' E 025°26'510.7
2018-May-21 20:00N 59°55' E 025°36'510.7
2018-May-21 19:31N 59°56' E 025°47'510.3
2018-May-21 19:01N 59°58' E 025°56'510.5
2018-May-21 18:30N 60°02' E 026°04'510.5
2018-May-21 18:01N 60°05' E 026°12'510.6
2018-May-21 17:31N 60°09' E 026°19'510.6
2018-May-21 17:00N 60°14' E 026°25'510.1
2018-May-21 16:31N 60°17' E 026°32'510.5
2018-May-21 16:01N 60°21' E 026°39'510.2
2018-May-21 15:30N 60°23' E 026°48'510.2
2018-May-21 15:01N 60°26' E 026°57'4 7.0
2018-May-21 14:30N 60°29' E 026°57'0 0.0
2018-May-21 14:00N 60°29' E 026°57'0 0.0
2018-May-21 13:30N 60°29' E 026°57'0 0.0
2018-May-21 13:00N 60°29' E 026°57'0 0.0
2018-May-21 12:30N 60°29' E 026°57'0 0.0
2018-May-21 12:00N 60°29' E 026°57'0 0.0
2018-May-21 11:30N 60°29' E 026°57'0 0.0
2018-May-21 10:57N 60°29' E 026°57'0 0.0
2018-May-21 10:30N 60°29' E 026°57'0 0.0
2018-May-21 10:00N 60°29' E 026°57'0 0.0
2018-May-21 09:30N 60°29' E 026°57'0 0.0
2018-May-21 09:00N 60°29' E 026°57'0 0.0
2018-May-21 08:30N 60°29' E 026°57'0 0.0
2018-May-21 08:00N 60°29' E 026°57'0 0.0
2018-May-21 07:27N 60°29' E 026°57'0 0.0
2018-May-21 07:00N 60°29' E 026°57'0 0.0
2018-May-21 06:30N 60°29' E 026°57'0 0.0
2018-May-21 06:00N 60°29' E 026°57'0 0.0
2018-May-21 05:27N 60°29' E 026°57'0 0.0
2018-May-21 05:00N 60°29' E 026°57'0 0.0
2018-May-21 04:30N 60°29' E 026°57'0 0.0
2018-May-21 04:00N 60°29' E 026°57'0 0.0
2018-May-21 03:30N 60°29' E 026°57'0 0.0
2018-May-21 03:00N 60°29' E 026°57'0 0.0
2018-May-21 02:30N 60°29' E 026°57'0 0.0
2018-May-21 02:00N 60°29' E 026°57'0 0.0
2018-May-21 01:30N 60°29' E 026°57'0 0.0
2018-May-21 01:00N 60°29' E 026°57'0 0.0
2018-May-21 00:30N 60°29' E 026°57'0 0.0
2018-May-21 00:00N 60°29' E 026°57'0 0.0
2018-May-20 23:30N 60°29' E 026°57'0 0.0
2018-May-20 23:00N 60°29' E 026°57'0 0.0
2018-May-20 22:27N 60°29' E 026°57'0 0.1
2018-May-20 22:00N 60°29' E 026°57'0 0.1
2018-May-20 21:30N 60°29' E 026°57'0 0.0
2018-May-20 21:00N 60°29' E 026°57'0 0.0
2018-May-20 20:30N 60°29' E 026°57'0 0.0
2018-May-20 20:00N 60°29' E 026°57'0 0.0
2018-May-20 19:30N 60°29' E 026°57'0 0.0
2018-May-20 19:00N 60°29' E 026°57'0 0.0
2018-May-20 18:30N 60°29' E 026°57'0 0.0
2018-May-20 18:00N 60°29' E 026°57'0 0.0
2018-May-20 17:30N 60°29' E 026°57'0 0.0
2018-May-20 17:00N 60°29' E 026°57'0 0.0
2018-May-20 16:30N 60°29' E 026°57'0 0.0
2018-May-20 16:00N 60°29' E 026°57'0 0.0
2018-May-20 15:30N 60°29' E 026°57'0 0.0
2018-May-20 15:00N 60°29' E 026°57'0 0.0
2018-May-20 14:30N 60°29' E 026°57'0 0.0
2018-May-20 14:00N 60°29' E 026°57'0 0.0
2018-May-20 13:30N 60°29' E 026°57'0 0.0
2018-May-20 13:00N 60°29' E 026°57'0 0.0
2018-May-20 12:30N 60°29' E 026°57'0 0.0
2018-May-20 12:00N 60°29' E 026°57'0 0.0
2018-May-20 11:30N 60°29' E 026°57'0 0.0
2018-May-20 11:00N 60°29' E 026°57'0 0.0
2018-May-20 10:30N 60°29' E 026°57'0 0.0
2018-May-20 10:00N 60°29' E 026°57'0 0.0
2018-May-20 09:30N 60°29' E 026°57'0 0.0
2018-May-20 09:00N 60°29' E 026°57'0 0.0
2018-May-20 08:30N 60°29' E 026°57'0 0.0
2018-May-20 08:00N 60°29' E 026°57'0 0.0
2018-May-20 07:30N 60°29' E 026°57'0 0.0
2018-May-20 07:00N 60°29' E 026°57'0 0.0
2018-May-20 06:30N 60°29' E 026°57'0 0.2
2018-May-20 06:00N 60°29' E 026°57'0 0.2
2018-May-20 05:30N 60°29' E 026°57'0 0.0
2018-May-20 05:00N 60°29' E 026°57'0 0.0
2018-May-20 04:30N 60°29' E 026°57'0 0.0
2018-May-20 04:00N 60°29' E 026°57'0 0.0
2018-May-20 03:30N 60°29' E 026°57'0 0.0
2018-May-20 03:00N 60°29' E 026°57'0 0.0
2018-May-20 02:30N 60°29' E 026°57'0 0.0
2018-May-20 02:00N 60°29' E 026°57'0 0.0
2018-May-20 01:30N 60°29' E 026°57'0 0.0
2018-May-20 01:00N 60°29' E 026°57'0 0.0
2018-May-20 00:30N 60°29' E 026°57'0 0.0
2018-May-20 00:00N 60°29' E 026°57'0 0.0
2018-May-19 23:30N 60°29' E 026°57'0 0.0
2018-May-19 23:00N 60°29' E 026°57'0 0.0
2018-May-19 22:30N 60°29' E 026°57'0 0.0
2018-May-19 22:00N 60°29' E 026°57'0 0.0
2018-May-19 21:30N 60°29' E 026°57'0 0.0
2018-May-19 21:00N 60°29' E 026°57'0 0.0
2018-May-19 20:30N 60°29' E 026°57'0 0.0
2018-May-19 20:00N 60°29' E 026°57'0 0.0
2018-May-19 19:30N 60°29' E 026°57'0 0.0
2018-May-19 19:00N 60°29' E 026°57'0 0.0
2018-May-19 18:30N 60°29' E 026°57'0 0.0
2018-May-19 18:00N 60°29' E 026°57'0 0.0
2018-May-19 17:30N 60°29' E 026°57'0 0.0
2018-May-19 17:00N 60°29' E 026°57'0 0.0
2018-May-19 16:30N 60°29' E 026°57'0 0.0
2018-May-19 16:00N 60°29' E 026°57'0 0.0
2018-May-19 15:30N 60°29' E 026°57'0 0.0
2018-May-19 15:00N 60°29' E 026°57'0 0.0
2018-May-19 14:30N 60°29' E 026°57'0 0.0
2018-May-19 14:00N 60°29' E 026°57'0 0.0
2018-May-19 13:30N 60°29' E 026°57'0 0.0
2018-May-19 13:00N 60°29' E 026°57'0 0.0
2018-May-19 12:30N 60°29' E 026°57'0 0.0
2018-May-19 12:00N 60°29' E 026°57'0 0.0
2018-May-19 11:30N 60°29' E 026°57'3 5.1
2018-May-19 11:00N 60°27' E 026°58'611.4
2018-May-19 10:30N 60°23' E 026°49'611.7
2018-May-19 10:00N 60°21' E 026°39'611.7
2018-May-19 09:30N 60°16' E 026°30'510.7
2018-May-19 09:00N 60°12' E 026°24'510.3
2018-May-19 08:30N 60°08' E 026°17'3010.6
2018-May-19 05:39N 59°50' E 025°28'211.7
2018-May-19 05:30N 59°50' E 025°25'611.4
2018-May-19 05:00N 59°49' E 025°14'611.3
2018-May-19 04:30N 59°48' E 025°03'611.4
2018-May-19 04:00N 59°46' E 024°52'611.8
2018-May-19 03:30N 59°45' E 024°40'611.7
2018-May-19 03:00N 59°44' E 024°29'611.9
2018-May-19 02:30N 59°43' E 024°17'611.9
2018-May-19 02:00N 59°41' E 024°07'611.5
2018-May-19 01:30N 59°39' E 023°56'611.7
2018-May-19 01:00N 59°37' E 023°45'611.8
2018-May-19 00:30N 59°36' E 023°33'611.8
2018-May-19 00:00N 59°36' E 023°21'611.9
2018-May-18 23:30N 59°40' E 023°12'612.2
2018-May-18 23:00N 59°44' E 023°03'610.8
2018-May-18 22:29N 59°47' E 022°54'13 9.9
2018-May-18 21:09N 59°55' E 022°33'411.6
2018-May-18 20:47N 59°53' E 022°26'311.9
2018-May-18 20:30N 59°53' E 022°19'611.6
2018-May-18 20:00N 59°59' E 022°20'611.4
2018-May-18 19:29N 60°04' E 022°14'18 1.9
2018-May-18 10:18N 60°13' E 021°43'310.8
2018-May-18 10:00N 60°10' E 021°42'510.3
2018-May-18 09:30N 60°05' E 021°41'611.4
2018-May-18 09:00N 59°59' E 021°42'611.2
2018-May-18 08:30N 59°55' E 021°36'611.6
2018-May-18 08:00N 59°51' E 021°26'510.7
2018-May-18 07:30N 59°47' E 021°21'5 9.8
2018-May-18 07:00N 59°42' E 021°20'5 9.6
2018-May-18 06:30N 59°37' E 021°18'5 9.7
2018-May-18 06:00N 59°33' E 021°12'510.0
2018-May-18 05:30N 59°30' E 021°04'510.2
2018-May-18 04:58N 59°27' E 020°56'3510.2
2018-May-18 01:33N 59°04' E 020°04'16710.6
2018-May-17 09:50N 56°43' E 017°16'6610.4
2018-May-17 03:32N 55°51' E 016°04'311.4
2018-May-17 03:18N 55°49' E 015°59'411.4
2018-May-17 02:58N 55°47' E 015°54'611.5
2018-May-17 02:28N 55°44' E 015°45'511.5
2018-May-17 02:00N 55°41' E 015°37'711.5
2018-May-17 01:24N 55°38' E 015°26'511.6
2018-May-17 00:56N 55°35' E 015°17'511.8
2018-May-17 00:28N 55°33' E 015°09'511.7
2018-May-17 00:00N 55°30' E 015°01'611.6
2018-May-16 23:30N 55°27' E 014°52'611.5
2018-May-16 23:00N 55°24' E 014°43'611.5
2018-May-16 22:30N 55°21' E 014°35'611.3
2018-May-16 22:00N 55°17' E 014°28'611.3
2018-May-16 21:30N 55°12' E 014°22'611.0
2018-May-16 21:00N 55°10' E 014°13'611.2
2018-May-16 20:30N 55°10' E 014°03'1411.1
2018-May-16 19:14N 55°12' E 013°39'411.2
2018-May-16 18:52N 55°12' E 013°31'511.5
2018-May-16 18:26N 55°13' E 013°23'611.6
2018-May-16 17:55N 55°14' E 013°12'511.5
2018-May-16 17:30N 55°14' E 013°04'611.3
2018-May-16 17:00N 55°15' E 012°54'611.2
2018-May-16 16:30N 55°17' E 012°45'510.1
2018-May-16 16:00N 55°20' E 012°39'611.3
2018-May-16 15:30N 55°26' E 012°40'611.5
2018-May-16 15:00N 55°31' E 012°42'612.3
2018-May-16 14:30N 55°37' E 012°42'612.4
2018-May-16 14:00N 55°44' E 012°41'611.9
2018-May-16 13:30N 55°50' E 012°42'612.2
2018-May-16 13:00N 55°55' E 012°38'611.9
2018-May-16 12:30N 56°01' E 012°38'510.5
2018-May-16 12:00N 56°06' E 012°33'612.1
2018-May-16 11:30N 56°10' E 012°25'611.8
2018-May-16 11:00N 56°15' E 012°22'1911.4
2018-May-16 09:19N 56°32' E 012°38'10 1.1
2018-May-15 23:48N 56°39' E 012°51'0 0.0
2018-May-15 23:27N 56°39' E 012°52'0 0.0
2018-May-15 22:57N 56°39' E 012°51'0 0.0
2018-May-15 21:39N 56°39' E 012°51'0 0.0
2018-May-15 06:45N 56°39' E 012°51'0 0.0
2018-May-15 06:30N 56°39' E 012°52'0 0.0
2018-May-15 06:00N 56°39' E 012°51'6 6.5
2018-May-15 05:01N 56°37' E 012°41'111.0
2018-May-15 04:57N 56°37' E 012°40'611.2
2018-May-15 04:26N 56°38' E 012°29'510.9
2018-May-15 04:00N 56°40' E 012°22'510.1
2018-May-15 03:30N 56°42' E 012°13'510.3
2018-May-15 03:00N 56°43' E 012°04'510.1
2018-May-15 02:30N 56°45' E 011°55'4 9.0
2018-May-15 02:00N 56°48' E 011°50'5 9.5
2018-May-15 01:30N 56°53' E 011°48'5 9.7
2018-May-15 01:00N 56°57' E 011°44'5 9.5
2018-May-15 00:30N 57°02' E 011°41'5 9.1
2018-May-15 00:00N 57°06' E 011°38'4 8.8
2018-May-14 23:30N 57°10' E 011°36'4 8.8
2018-May-14 23:00N 57°14' E 011°33'5 9.1
2018-May-14 22:30N 57°19' E 011°30'5 9.5
2018-May-14 22:00N 57°23' E 011°27'5 9.5
2018-May-14 21:30N 57°27' E 011°23'510.2
2018-May-14 21:00N 57°31' E 011°16'510.1
2018-May-14 20:30N 57°34' E 011°10'510.1
2018-May-14 20:00N 57°38' E 011°03'510.6
2018-May-14 19:30N 57°42' E 010°56'510.5
2018-May-14 19:00N 57°45' E 010°48'5 9.2
2018-May-14 18:30N 57°47' E 010°40'510.4
2018-May-14 18:00N 57°46' E 010°30'  
Track history (hours):
 
Tides and Currents Weather Stations Pressure Air Temp Water Temp Dewpoint Dewpoint Depression Visibility Wind Speed Wind Dir Waves Ship Positions

Jolyn

Last reported at 2018-May-24 17:30 UTC. Time now 2018-May-24 17:36 UTC.
Position N 53°51' E 008°52'.

Length 90 m; draft 5.4 m.

Type: Cargo ship. MMSI: 306813000.

Date/timePositionNaut miles runAvg speedWind from/ knotsBaromVisibWave heightAir tempDewpointWater temp
2018-May-24 17:30N 53°51' E 008°52'4 8.7
2018-May-24 17:00N 53°51' E 008°59'510.0
2018-May-24 16:30N 53°53' E 009°07'1 2.5
2018-May-24 15:59N 53°54' E 009°09'2 3.7
2018-May-24 15:30N 53°55' E 009°11'4 8.1
2018-May-24 15:00N 53°58' E 009°15'4 8.1
2018-May-24 14:30N 54°02' E 009°18'4 8.2
2018-May-24 14:00N 54°06' E 009°20'4 7.5
2018-May-24 13:31N 54°09' E 009°22'20 4.5
2018-May-24 08:59N 54°22' E 009°50'11 6.2
2018-May-24 07:11N 54°22' E 010°09'0 0.2
2018-May-24 07:00N 54°22' E 010°09'2 4.9
2018-May-24 06:30N 54°23' E 010°12'5 9.8
2018-May-24 05:59N 54°28' E 010°15'510.2
2018-May-24 05:30N 54°31' E 010°22'511.0
2018-May-24 05:00N 54°33' E 010°31'510.7
2018-May-24 04:31N 54°34' E 010°40'510.7
2018-May-24 04:00N 54°35' E 010°49'611.0
2018-May-24 03:30N 54°35' E 010°58'511.0
2018-May-24 03:00N 54°36' E 011°08'611.4
2018-May-24 02:31N 54°34' E 011°17'611.4
2018-May-24 02:00N 54°32' E 011°26'611.2
2018-May-24 01:30N 54°29' E 011°35'611.2
2018-May-24 01:01N 54°28' E 011°44'611.1
2018-May-24 00:31N 54°27' E 011°54'611.3
2018-May-24 00:01N 54°27' E 012°03'510.1
2018-May-23 23:31N 54°30' E 012°11'611.3
2018-May-23 23:01N 54°35' E 012°14'510.9
2018-May-23 22:31N 54°39' E 012°20'611.3
2018-May-23 22:00N 54°42' E 012°29'611.3
2018-May-23 21:27N 54°45' E 012°38'711.1
2018-May-23 20:52N 54°48' E 012°48'3211.1
2018-May-23 17:56N 54°59' E 013°41'910.6
2018-May-23 17:06N 55°02' E 013°55'110.8
2018-May-23 16:59N 55°03' E 013°57'510.8
2018-May-23 16:30N 55°05' E 014°06'611.0
2018-May-23 16:00N 55°09' E 014°11'510.9
2018-May-23 15:30N 55°14' E 014°17'611.2
2018-May-23 15:00N 55°18' E 014°23'511.0
2018-May-23 14:30N 55°22' E 014°30'510.9
2018-May-23 14:00N 55°26' E 014°36'511.0
2018-May-23 13:31N 55°29' E 014°44'511.0
2018-May-23 13:01N 55°32' E 014°53'611.0
2018-May-23 12:30N 55°35' E 015°01'510.9
2018-May-23 12:01N 55°38' E 015°09'510.8
2018-May-23 11:31N 55°40' E 015°18'510.6
2018-May-23 11:01N 55°43' E 015°26'510.8
2018-May-23 10:31N 55°46' E 015°34'510.8
2018-May-23 10:01N 55°48' E 015°42'510.9
2018-May-23 09:30N 55°51' E 015°51'510.9
2018-May-23 09:00N 55°54' E 015°59'510.9
2018-May-23 08:31N 55°57' E 016°07'510.8
2018-May-23 08:01N 55°59' E 016°16'510.6
2018-May-23 07:31N 56°02' E 016°24'510.8
2018-May-23 07:00N 56°05' E 016°32'511.0
2018-May-23 06:30N 56°08' E 016°40'510.9
2018-May-23 06:01N 56°11' E 016°48'510.9
2018-May-23 05:31N 56°14' E 016°57'510.9
2018-May-23 05:00N 56°17' E 017°04'510.8
2018-May-23 04:30N 56°21' E 017°12'510.8
2018-May-23 04:01N 56°24' E 017°20'510.8
2018-May-23 03:30N 56°27' E 017°28'510.8
2018-May-23 03:00N 56°31' E 017°35'610.8
2018-May-23 02:30N 56°34' E 017°43'18210.8
2018-May-22 09:36N 58°55' E 021°19'211.0
2018-May-22 09:24N 58°57' E 021°22'410.9
2018-May-22 09:00N 59°00' E 021°27'510.8
2018-May-22 08:30N 59°05' E 021°33'510.7
2018-May-22 08:01N 59°09' E 021°40'510.7
2018-May-22 07:31N 59°12' E 021°48'510.9
2018-May-22 07:00N 59°16' E 021°56'510.9
2018-May-22 06:31N 59°19' E 022°05'610.9
2018-May-22 06:00N 59°22' E 022°13'510.9
2018-May-22 05:30N 59°26' E 022°22'611.0
2018-May-22 05:00N 59°29' E 022°30'910.8
2018-May-22 04:07N 59°32' E 022°48'111.0
2018-May-22 04:00N 59°32' E 022°51'510.9
2018-May-22 03:31N 59°34' E 023°01'510.8
2018-May-22 03:00N 59°35' E 023°11'611.1
2018-May-22 02:30N 59°37' E 023°21'510.8
2018-May-22 02:01N 59°39' E 023°32'510.8
2018-May-22 01:31N 59°40' E 023°42'510.9
2018-May-22 01:00N 59°42' E 023°52'611.1
2018-May-22 00:30N 59°43' E 024°03'610.9
2018-May-21 23:57N 59°45' E 024°14'510.6
2018-May-21 23:30N 59°46' E 024°23'510.8
2018-May-21 23:01N 59°48' E 024°34'510.8
2018-May-21 22:31N 59°49' E 024°44'611.0
2018-May-21 22:00N 59°50' E 024°55'510.8
2018-May-21 21:31N 59°51' E 025°05'510.5
2018-May-21 21:01N 59°52' E 025°16'510.5
2018-May-21 20:31N 59°54' E 025°26'510.7
2018-May-21 20:00N 59°55' E 025°36'510.7
2018-May-21 19:31N 59°56' E 025°47'510.3
2018-May-21 19:01N 59°58' E 025°56'510.5
2018-May-21 18:30N 60°02' E 026°04'510.5
2018-May-21 18:01N 60°05' E 026°12'510.6
2018-May-21 17:31N 60°09' E 026°19'510.6
2018-May-21 17:00N 60°14' E 026°25'510.1
2018-May-21 16:31N 60°17' E 026°32'510.5
2018-May-21 16:01N 60°21' E 026°39'510.2
2018-May-21 15:30N 60°23' E 026°48'510.2
2018-May-21 15:01N 60°26' E 026°57'4 7.0
2018-May-21 14:30N 60°29' E 026°57'0 0.0
2018-May-21 14:00N 60°29' E 026°57'0 0.0
2018-May-21 13:30N 60°29' E 026°57'0 0.0
2018-May-21 13:00N 60°29' E 026°57'0 0.0
2018-May-21 12:30N 60°29' E 026°57'0 0.0
2018-May-21 12:00N 60°29' E 026°57'0 0.0
2018-May-21 11:30N 60°29' E 026°57'0 0.0
2018-May-21 10:57N 60°29' E 026°57'0 0.0
2018-May-21 10:30N 60°29' E 026°57'0 0.0
2018-May-21 10:00N 60°29' E 026°57'0 0.0
2018-May-21 09:30N 60°29' E 026°57'0 0.0
2018-May-21 09:00N 60°29' E 026°57'0 0.0
2018-May-21 08:30N 60°29' E 026°57'0 0.0
2018-May-21 08:00N 60°29' E 026°57'0 0.0
2018-May-21 07:27N 60°29' E 026°57'0 0.0
2018-May-21 07:00N 60°29' E 026°57'0 0.0
2018-May-21 06:30N 60°29' E 026°57'0 0.0
2018-May-21 06:00N 60°29' E 026°57'0 0.0
2018-May-21 05:27N 60°29' E 026°57'0 0.0
2018-May-21 05:00N 60°29' E 026°57'0 0.0
2018-May-21 04:30N 60°29' E 026°57'0 0.0
2018-May-21 04:00N 60°29' E 026°57'0 0.0
2018-May-21 03:30N 60°29' E 026°57'0 0.0
2018-May-21 03:00N 60°29' E 026°57'0 0.0
2018-May-21 02:30N 60°29' E 026°57'0 0.0
2018-May-21 02:00N 60°29' E 026°57'0 0.0
2018-May-21 01:30N 60°29' E 026°57'0 0.0
2018-May-21 01:00N 60°29' E 026°57'0 0.0
2018-May-21 00:30N 60°29' E 026°57'0 0.0
2018-May-21 00:00N 60°29' E 026°57'0 0.0
2018-May-20 23:30N 60°29' E 026°57'0 0.0
2018-May-20 23:00N 60°29' E 026°57'0 0.0
2018-May-20 22:27N 60°29' E 026°57'0 0.1
2018-May-20 22:00N 60°29' E 026°57'0 0.1
2018-May-20 21:30N 60°29' E 026°57'0 0.0
2018-May-20 21:00N 60°29' E 026°57'0 0.0
2018-May-20 20:30N 60°29' E 026°57'0 0.0
2018-May-20 20:00N 60°29' E 026°57'0 0.0
2018-May-20 19:30N 60°29' E 026°57'0 0.0
2018-May-20 19:00N 60°29' E 026°57'0 0.0
2018-May-20 18:30N 60°29' E 026°57'0 0.0
2018-May-20 18:00N 60°29' E 026°57'0 0.0
2018-May-20 17:30N 60°29' E 026°57'0 0.0
2018-May-20 17:00N 60°29' E 026°57'0 0.0
2018-May-20 16:30N 60°29' E 026°57'0 0.0
2018-May-20 16:00N 60°29' E 026°57'0 0.0
2018-May-20 15:30N 60°29' E 026°57'0 0.0
2018-May-20 15:00N 60°29' E 026°57'0 0.0
2018-May-20 14:30N 60°29' E 026°57'0 0.0
2018-May-20 14:00N 60°29' E 026°57'0 0.0
2018-May-20 13:30N 60°29' E 026°57'0 0.0
2018-May-20 13:00N 60°29' E 026°57'0 0.0
2018-May-20 12:30N 60°29' E 026°57'0 0.0
2018-May-20 12:00N 60°29' E 026°57'0 0.0
2018-May-20 11:30N 60°29' E 026°57'0 0.0
2018-May-20 11:00N 60°29' E 026°57'0 0.0
2018-May-20 10:30N 60°29' E 026°57'0 0.0
2018-May-20 10:00N 60°29' E 026°57'0 0.0
2018-May-20 09:30N 60°29' E 026°57'0 0.0
2018-May-20 09:00N 60°29' E 026°57'0 0.0
2018-May-20 08:30N 60°29' E 026°57'0 0.0
2018-May-20 08:00N 60°29' E 026°57'0 0.0
2018-May-20 07:30N 60°29' E 026°57'0 0.0
2018-May-20 07:00N 60°29' E 026°57'0 0.0
2018-May-20 06:30N 60°29' E 026°57'0 0.2
2018-May-20 06:00N 60°29' E 026°57'0 0.2
2018-May-20 05:30N 60°29' E 026°57'0 0.0
2018-May-20 05:00N 60°29' E 026°57'0 0.0
2018-May-20 04:30N 60°29' E 026°57'0 0.0
2018-May-20 04:00N 60°29' E 026°57'0 0.0
2018-May-20 03:30N 60°29' E 026°57'0 0.0
2018-May-20 03:00N 60°29' E 026°57'0 0.0
2018-May-20 02:30N 60°29' E 026°57'0 0.0
2018-May-20 02:00N 60°29' E 026°57'0 0.0
2018-May-20 01:30N 60°29' E 026°57'0 0.0
2018-May-20 01:00N 60°29' E 026°57'0 0.0
2018-May-20 00:30N 60°29' E 026°57'0 0.0
2018-May-20 00:00N 60°29' E 026°57'0 0.0
2018-May-19 23:30N 60°29' E 026°57'0 0.0
2018-May-19 23:00N 60°29' E 026°57'0 0.0
2018-May-19 22:30N 60°29' E 026°57'0 0.0
2018-May-19 22:00N 60°29' E 026°57'0 0.0
2018-May-19 21:30N 60°29' E 026°57'0 0.0
2018-May-19 21:00N 60°29' E 026°57'0 0.0
2018-May-19 20:30N 60°29' E 026°57'0 0.0
2018-May-19 20:00N 60°29' E 026°57'0 0.0
2018-May-19 19:30N 60°29' E 026°57'0 0.0
2018-May-19 19:00N 60°29' E 026°57'0 0.0
2018-May-19 18:30N 60°29' E 026°57'0 0.0
2018-May-19 18:00N 60°29' E 026°57'0 0.0
2018-May-19 17:30N 60°29' E 026°57'0 0.0
2018-May-19 17:00N 60°29' E 026°57'0 0.0
2018-May-19 16:30N 60°29' E 026°57'0 0.0
2018-May-19 16:00N 60°29' E 026°57'0 0.0
2018-May-19 15:30N 60°29' E 026°57'0 0.0
2018-May-19 15:00N 60°29' E 026°57'0 0.0
2018-May-19 14:30N 60°29' E 026°57'0 0.0
2018-May-19 14:00N 60°29' E 026°57'0 0.0
2018-May-19 13:30N 60°29' E 026°57'0 0.0
2018-May-19 13:00N 60°29' E 026°57'0 0.0
2018-May-19 12:30N 60°29' E 026°57'0 0.0
2018-May-19 12:00N 60°29' E 026°57'0 0.0
2018-May-19 11:30N 60°29' E 026°57'3 5.1
2018-May-19 11:00N 60°27' E 026°58'611.4
2018-May-19 10:30N 60°23' E 026°49'611.7
2018-May-19 10:00N 60°21' E 026°39'611.7
2018-May-19 09:30N 60°16' E 026°30'510.7
2018-May-19 09:00N 60°12' E 026°24'510.3
2018-May-19 08:30N 60°08' E 026°17'3010.6
2018-May-19 05:39N 59°50' E 025°28'211.7
2018-May-19 05:30N 59°50' E 025°25'611.4
2018-May-19 05:00N 59°49' E 025°14'611.3
2018-May-19 04:30N 59°48' E 025°03'611.4
2018-May-19 04:00N 59°46' E 024°52'611.8
2018-May-19 03:30N 59°45' E 024°40'611.7
2018-May-19 03:00N 59°44' E 024°29'611.9
2018-May-19 02:30N 59°43' E 024°17'611.9
2018-May-19 02:00N 59°41' E 024°07'611.5
2018-May-19 01:30N 59°39' E 023°56'611.7
2018-May-19 01:00N 59°37' E 023°45'611.8
2018-May-19 00:30N 59°36' E 023°33'611.8
2018-May-19 00:00N 59°36' E 023°21'611.9
2018-May-18 23:30N 59°40' E 023°12'612.2
2018-May-18 23:00N 59°44' E 023°03'610.8
2018-May-18 22:29N 59°47' E 022°54'13 9.9
2018-May-18 21:09N 59°55' E 022°33'411.6
2018-May-18 20:47N 59°53' E 022°26'311.9
2018-May-18 20:30N 59°53' E 022°19'611.6
2018-May-18 20:00N 59°59' E 022°20'611.4
2018-May-18 19:29N 60°04' E 022°14'18 1.9
2018-May-18 10:18N 60°13' E 021°43'310.8
2018-May-18 10:00N 60°10' E 021°42'510.3
2018-May-18 09:30N 60°05' E 021°41'611.4
2018-May-18 09:00N 59°59' E 021°42'611.2
2018-May-18 08:30N 59°55' E 021°36'611.6
2018-May-18 08:00N 59°51' E 021°26'510.7
2018-May-18 07:30N 59°47' E 021°21'5 9.8
2018-May-18 07:00N 59°42' E 021°20'5 9.6
2018-May-18 06:30N 59°37' E 021°18'5 9.7
2018-May-18 06:00N 59°33' E 021°12'510.0
2018-May-18 05:30N 59°30' E 021°04'510.2
2018-May-18 04:58N 59°27' E 020°56'3510.2
2018-May-18 01:33N 59°04' E 020°04'16710.6
2018-May-17 09:50N 56°43' E 017°16'6610.4
2018-May-17 03:32N 55°51' E 016°04'311.4
2018-May-17 03:18N 55°49' E 015°59'411.4
2018-May-17 02:58N 55°47' E 015°54'611.5
2018-May-17 02:28N 55°44' E 015°45'511.5
2018-May-17 02:00N 55°41' E 015°37'711.5
2018-May-17 01:24N 55°38' E 015°26'511.6
2018-May-17 00:56N 55°35' E 015°17'511.8
2018-May-17 00:28N 55°33' E 015°09'511.7
2018-May-17 00:00N 55°30' E 015°01'611.6
2018-May-16 23:30N 55°27' E 014°52'611.5
2018-May-16 23:00N 55°24' E 014°43'611.5
2018-May-16 22:30N 55°21' E 014°35'611.3
2018-May-16 22:00N 55°17' E 014°28'611.3
2018-May-16 21:30N 55°12' E 014°22'611.0
2018-May-16 21:00N 55°10' E 014°13'611.2
2018-May-16 20:30N 55°10' E 014°03'1411.1
2018-May-16 19:14N 55°12' E 013°39'411.2
2018-May-16 18:52N 55°12' E 013°31'511.5
2018-May-16 18:26N 55°13' E 013°23'611.6
2018-May-16 17:55N 55°14' E 013°12'511.5
2018-May-16 17:30N 55°14' E 013°04'611.3
2018-May-16 17:00N 55°15' E 012°54'611.2
2018-May-16 16:30N 55°17' E 012°45'510.1
2018-May-16 16:00N 55°20' E 012°39'611.3
2018-May-16 15:30N 55°26' E 012°40'611.5
2018-May-16 15:00N 55°31' E 012°42'612.3
2018-May-16 14:30N 55°37' E 012°42'612.4
2018-May-16 14:00N 55°44' E 012°41'611.9
2018-May-16 13:30N 55°50' E 012°42'612.2
2018-May-16 13:00N 55°55' E 012°38'611.9
2018-May-16 12:30N 56°01' E 012°38'510.5
2018-May-16 12:00N 56°06' E 012°33'612.1
2018-May-16 11:30N 56°10' E 012°25'611.8
2018-May-16 11:00N 56°15' E 012°22'1911.4
2018-May-16 09:19N 56°32' E 012°38'10 1.1
2018-May-15 23:48N 56°39' E 012°51'0 0.0
2018-May-15 23:27N 56°39' E 012°52'0 0.0
2018-May-15 22:57N 56°39' E 012°51'0 0.0
2018-May-15 21:39N 56°39' E 012°51'0 0.0
2018-May-15 06:45N 56°39' E 012°51'0 0.0
2018-May-15 06:30N 56°39' E 012°52'0 0.0
2018-May-15 06:00N 56°39' E 012°51'6 6.5
2018-May-15 05:01N 56°37' E 012°41'111.0
2018-May-15 04:57N 56°37' E 012°40'611.2
2018-May-15 04:26N 56°38' E 012°29'510.9
2018-May-15 04:00N 56°40' E 012°22'510.1
2018-May-15 03:30N 56°42' E 012°13'510.3
2018-May-15 03:00N 56°43' E 012°04'510.1
2018-May-15 02:30N 56°45' E 011°55'4 9.0
2018-May-15 02:00N 56°48' E 011°50'5 9.5
2018-May-15 01:30N 56°53' E 011°48'5 9.7
2018-May-15 01:00N 56°57' E 011°44'5 9.5
2018-May-15 00:30N 57°02' E 011°41'5 9.1
2018-May-15 00:00N 57°06' E 011°38'4 8.8
2018-May-14 23:30N 57°10' E 011°36'4 8.8
2018-May-14 23:00N 57°14' E 011°33'5 9.1
2018-May-14 22:30N 57°19' E 011°30'5 9.5
2018-May-14 22:00N 57°23' E 011°27'5 9.5
2018-May-14 21:30N 57°27' E 011°23'510.2
2018-May-14 21:00N 57°31' E 011°16'510.1
2018-May-14 20:30N 57°34' E 011°10'510.1
2018-May-14 20:00N 57°38' E 011°03'510.6
2018-May-14 19:30N 57°42' E 010°56'510.5
2018-May-14 19:00N 57°45' E 010°48'5 9.2
2018-May-14 18:30N 57°47' E 010°40'510.4
2018-May-14 18:00N 57°46' E 010°30'  

Dump ship's entire track history